sensor_id;sensor_type;location;lat;lon;timestamp;pressure;altitude;pressure_sealevel;temperature;humidity
43364;BME280;40636;52.424;-1.948;2023-02-22T00:00:52;99467.91;;;6.69;100.00
43364;BME280;40636;52.424;-1.948;2023-02-22T00:03:24;99462.81;;;6.73;100.00
43364;BME280;40636;52.424;-1.948;2023-02-22T00:05:56;99456.75;;;6.71;100.00
43364;BME280;40636;52.424;-1.948;2023-02-22T00:08:30;99461.13;;;6.72;100.00
43364;BME280;40636;52.424;-1.948;2023-02-22T00:10:59;99467.19;;;6.74;100.00
43364;BME280;40636;52.424;-1.948;2023-02-22T00:13:27;99471.00;;;6.73;100.00
43364;BME280;40636;52.424;-1.948;2023-02-22T00:15:56;99462.81;;;6.73;100.00
43364;BME280;40636;52.424;-1.948;2023-02-22T00:18:23;99459.97;;;6.68;100.00
43364;BME280;40636;52.424;-1.948;2023-02-22T00:20:50;99470.63;;;6.69;100.00
43364;BME280;40636;52.424;-1.948;2023-02-22T00:23:19;99468.63;;;6.65;100.00
43364;BME280;40636;52.424;-1.948;2023-02-22T00:25:48;99468.63;;;6.65;100.00
43364;BME280;40636;52.424;-1.948;2023-02-22T00:28:17;99466.72;;;6.65;100.00
43364;BME280;40636;52.424;-1.948;2023-02-22T00:30:44;99465.06;;;6.64;100.00
43364;BME280;40636;52.424;-1.948;2023-02-22T00:33:13;99462.22;;;6.59;100.00
43364;BME280;40636;52.424;-1.948;2023-02-22T00:35:41;99465.66;;;6.54;100.00
43364;BME280;40636;52.424;-1.948;2023-02-22T00:38:13;99463.97;;;6.53;100.00
43364;BME280;40636;52.424;-1.948;2023-02-22T00:40:40;99466.13;;;6.51;100.00
43364;BME280;40636;52.424;-1.948;2023-02-22T00:43:07;99457.34;;;6.49;100.00
43364;BME280;40636;52.424;-1.948;2023-02-22T00:45:35;99462.31;;;6.52;100.00
43364;BME280;40636;52.424;-1.948;2023-02-22T00:48:04;99458.66;;;6.47;100.00
43364;BME280;40636;52.424;-1.948;2023-02-22T00:50:31;99457.81;;;6.46;100.00
43364;BME280;40636;52.424;-1.948;2023-02-22T00:52:59;99453.56;;;6.50;100.00
43364;BME280;40636;52.424;-1.948;2023-02-22T00:55:31;99450.22;;;6.48;100.00
43364;BME280;40636;52.424;-1.948;2023-02-22T00:57:59;99450.34;;;6.42;100.00
43364;BME280;40636;52.424;-1.948;2023-02-22T01:00:30;99443.00;;;6.42;100.00
43364;BME280;40636;52.424;-1.948;2023-02-22T01:02:57;99437.31;;;6.44;100.00
43364;BME280;40636;52.424;-1.948;2023-02-22T01:05:26;99436.94;;;6.40;100.00
43364;BME280;40636;52.424;-1.948;2023-02-22T01:07:55;99429.25;;;6.37;100.00
43364;BME280;40636;52.424;-1.948;2023-02-22T01:10:23;99435.91;;;6.41;100.00
43364;BME280;40636;52.424;-1.948;2023-02-22T01:12:51;99438.38;;;6.43;100.00
43364;BME280;40636;52.424;-1.948;2023-02-22T01:15:19;99431.38;;;6.35;100.00
43364;BME280;40636;52.424;-1.948;2023-02-22T01:17:50;99428.06;;;6.33;100.00
43364;BME280;40636;52.424;-1.948;2023-02-22T01:20:20;99433.28;;;6.34;100.00
43364;BME280;40636;52.424;-1.948;2023-02-22T01:22:56;99433.75;;;6.43;100.00
43364;BME280;40636;52.424;-1.948;2023-02-22T01:25:26;99429.63;;;6.41;100.00
43364;BME280;40636;52.424;-1.948;2023-02-22T01:27:55;99422.28;;;6.41;100.00
43364;BME280;40636;52.424;-1.948;2023-02-22T01:30:29;99428.56;;;6.42;100.00
43364;BME280;40636;52.424;-1.948;2023-02-22T01:33:00;99424.50;;;6.44;100.00
43364;BME280;40636;52.424;-1.948;2023-02-22T01:35:31;99418.13;;;6.39;100.00
43364;BME280;40636;52.424;-1.948;2023-02-22T01:37:58;99417.88;;;6.40;100.00
43364;BME280;40636;52.424;-1.948;2023-02-22T01:40:29;99417.28;;;6.38;100.00
43364;BME280;40636;52.424;-1.948;2023-02-22T01:42:59;99415.84;;;6.35;100.00
43364;BME280;40636;52.424;-1.948;2023-02-22T01:48:00;99409.00;;;6.33;100.00
43364;BME280;40636;52.424;-1.948;2023-02-22T01:50:29;99410.19;;;6.37;100.00
43364;BME280;40636;52.424;-1.948;2023-02-22T01:52:59;99420.59;;;6.40;100.00
43364;BME280;40636;52.424;-1.948;2023-02-22T01:55:26;99413.03;;;6.42;100.00
43364;BME280;40636;52.424;-1.948;2023-02-22T01:57:53;99420.47;;;6.35;100.00
43364;BME280;40636;52.424;-1.948;2023-02-22T02:00:20;99404.63;;;6.32;100.00
43364;BME280;40636;52.424;-1.948;2023-02-22T02:02:51;99411.00;;;6.26;100.00
43364;BME280;40636;52.424;-1.948;2023-02-22T02:05:19;99413.72;;;6.14;100.00
43364;BME280;40636;52.424;-1.948;2023-02-22T02:07:46;99413.09;;;6.12;100.00
43364;BME280;40636;52.424;-1.948;2023-02-22T02:10:14;99408.47;;;6.13;100.00
43364;BME280;40636;52.424;-1.948;2023-02-22T02:12:45;99406.25;;;6.09;100.00
43364;BME280;40636;52.424;-1.948;2023-02-22T02:15:26;99413.34;;;6.10;100.00
43364;BME280;40636;52.424;-1.948;2023-02-22T02:17:56;99410.50;;;6.05;100.00
43364;BME280;40636;52.424;-1.948;2023-02-22T02:26:01;99408.84;;;6.04;100.00
43364;BME280;40636;52.424;-1.948;2023-02-22T02:36:45;99400.56;;;6.11;100.00
43364;BME280;40636;52.424;-1.948;2023-02-22T02:39:26;99392.13;;;6.13;100.00
43364;BME280;40636;52.424;-1.948;2023-02-22T02:41:55;99391.19;;;6.07;100.00
43364;BME280;40636;52.424;-1.948;2023-02-22T02:44:31;99395.00;;;6.06;100.00
43364;BME280;40636;52.424;-1.948;2023-02-22T02:46:59;99394.88;;;6.01;100.00
43364;BME280;40636;52.424;-1.948;2023-02-22T02:49:36;99385.38;;;6.03;100.00
43364;BME280;40636;52.424;-1.948;2023-02-22T02:52:06;99385.50;;;5.97;100.00
43364;BME280;40636;52.424;-1.948;2023-02-22T02:54:37;99380.44;;;6.00;100.00
43364;BME280;40636;52.424;-1.948;2023-02-22T02:57:04;99384.56;;;6.03;100.00
43364;BME280;40636;52.424;-1.948;2023-02-22T02:59:34;99382.78;;;6.08;100.00
43364;BME280;40636;52.424;-1.948;2023-02-22T03:07:56;99367.50;;;6.07;100.00
43364;BME280;40636;52.424;-1.948;2023-02-22T03:10:42;99366.09;;;6.05;100.00
43364;BME280;40636;52.424;-1.948;2023-02-22T03:13:21;99361.59;;;6.10;100.00
43364;BME280;40636;52.424;-1.948;2023-02-22T03:18:57;99357.09;;;6.04;100.00
43364;BME280;40636;52.424;-1.948;2023-02-22T03:24:25;99346.78;;;6.06;100.00
43364;BME280;40636;52.424;-1.948;2023-02-22T03:27:05;99356.03;;;6.05;100.00
43364;BME280;40636;52.424;-1.948;2023-02-22T03:29:38;99353.31;;;6.05;100.00
43364;BME280;40636;52.424;-1.948;2023-02-22T03:32:13;99349.75;;;6.05;100.00
43364;BME280;40636;52.424;-1.948;2023-02-22T03:34:48;99348.94;;;6.04;100.00
43364;BME280;40636;52.424;-1.948;2023-02-22T03:37:27;99344.66;;;6.08;100.00
43364;BME280;40636;52.424;-1.948;2023-02-22T03:39:56;99343.81;;;6.08;100.00
43364;BME280;40636;52.424;-1.948;2023-02-22T03:42:28;99345.13;;;6.05;100.00
43364;BME280;40636;52.424;-1.948;2023-02-22T03:44:59;99342.41;;;6.05;100.00
43364;BME280;40636;52.424;-1.948;2023-02-22T03:47:42;99343.81;;;6.08;100.00
43364;BME280;40636;52.424;-1.948;2023-02-22T03:50:14;99346.31;;;6.09;100.00
43364;BME280;40636;52.424;-1.948;2023-02-22T03:52:43;99340.88;;;6.09;100.00
43364;BME280;40636;52.424;-1.948;2023-02-22T03:55:11;99335.88;;;6.06;100.00
43364;BME280;40636;52.424;-1.948;2023-02-22T03:57:40;99336.34;;;6.03;100.00
43364;BME280;40636;52.424;-1.948;2023-02-22T04:00:11;99323.34;;;6.05;100.00
43364;BME280;40636;52.424;-1.948;2023-02-22T04:02:40;99326.06;;;6.05;100.00
43364;BME280;40636;52.424;-1.948;2023-02-22T04:05:08;99321.19;;;6.07;100.00
43364;BME280;40636;52.424;-1.948;2023-02-22T04:07:34;99318.59;;;6.01;100.00
43364;BME280;40636;52.424;-1.948;2023-02-22T04:10:01;99318.59;;;6.01;100.00
43364;BME280;40636;52.424;-1.948;2023-02-22T04:12:28;99318.81;;;5.99;100.00
43364;BME280;40636;52.424;-1.948;2023-02-22T04:14:55;99313.38;;;5.99;100.00
43364;BME280;40636;52.424;-1.948;2023-02-22T04:17:21;99304.38;;;5.99;100.00
43364;BME280;40636;52.424;-1.948;2023-02-22T04:19:48;99304.06;;;5.95;100.00
43364;BME280;40636;52.424;-1.948;2023-02-22T04:22:15;99307.94;;;5.99;100.00
43364;BME280;40636;52.424;-1.948;2023-02-22T04:24:41;99307.34;;;5.97;100.00
43364;BME280;40636;52.424;-1.948;2023-02-22T04:27:08;99300.84;;;5.98;100.00
43364;BME280;40636;52.424;-1.948;2023-02-22T04:29:35;99302.72;;;5.98;100.00
43364;BME280;40636;52.424;-1.948;2023-02-22T04:32:01;99306.06;;;6.00;100.00
43364;BME280;40636;52.424;-1.948;2023-02-22T04:34:28;99297.03;;;5.99;100.00
43364;BME280;40636;52.424;-1.948;2023-02-22T04:36:55;99290.44;;;5.95;100.00
43364;BME280;40636;52.424;-1.948;2023-02-22T04:39:21;99285.09;;;6.00;100.00
43364;BME280;40636;52.424;-1.948;2023-02-22T04:41:48;99293.50;;;5.99;100.00
43364;BME280;40636;52.424;-1.948;2023-02-22T04:44:15;99292.91;;;5.97;100.00
43364;BME280;40636;52.424;-1.948;2023-02-22T04:46:41;99299.66;;;5.94;100.00
43364;BME280;40636;52.424;-1.948;2023-02-22T04:49:08;99290.19;;;5.97;100.00
43364;BME280;40636;52.424;-1.948;2023-02-22T04:51:35;99295.38;;;5.98;100.00
43364;BME280;40636;52.424;-1.948;2023-02-22T04:54:02;99289.47;;;6.01;100.00
43364;BME280;40636;52.424;-1.948;2023-02-22T04:56:29;99290.88;;;6.04;100.00
43364;BME280;40636;52.424;-1.948;2023-02-22T04:58:56;99291.72;;;6.04;100.00
43364;BME280;40636;52.424;-1.948;2023-02-22T05:01:22;99302.84;;;6.03;100.00
43364;BME280;40636;52.424;-1.948;2023-02-22T05:03:49;99293.50;;;5.99;100.00
43364;BME280;40636;52.424;-1.948;2023-02-22T05:06:17;99286.75;;;6.01;100.00
43364;BME280;40636;52.424;-1.948;2023-02-22T05:08:44;99288.19;;;5.92;100.00
43364;BME280;40636;52.424;-1.948;2023-02-22T05:11:10;99290.25;;;5.90;100.00
43364;BME280;40636;52.424;-1.948;2023-02-22T05:13:37;99287.53;;;5.90;100.00
43364;BME280;40636;52.424;-1.948;2023-02-22T05:16:04;99290.25;;;5.90;100.00
43364;BME280;40636;52.424;-1.948;2023-02-22T05:18:30;99288.84;;;5.88;100.00
43364;BME280;40636;52.424;-1.948;2023-02-22T05:20:57;99284.69;;;5.85;100.00
43364;BME280;40636;52.424;-1.948;2023-02-22T05:23:24;99280.44;;;5.89;100.00
43364;BME280;40636;52.424;-1.948;2023-02-22T05:25:50;99283.78;;;5.91;100.00
43364;BME280;40636;52.424;-1.948;2023-02-22T05:28:17;99283.16;;;5.89;100.00
43364;BME280;40636;52.424;-1.948;2023-02-22T05:30:44;99277.97;;;5.88;100.00
43364;BME280;40636;52.424;-1.948;2023-02-22T05:33:11;99282.09;;;5.90;100.00
43364;BME280;40636;52.424;-1.948;2023-02-22T05:35:38;99281.75;;;5.87;100.00
43364;BME280;40636;52.424;-1.948;2023-02-22T05:38:05;99278.66;;;5.83;100.00
43364;BME280;40636;52.424;-1.948;2023-02-22T05:40:32;99279.50;;;5.83;100.00
43364;BME280;40636;52.424;-1.948;2023-02-22T05:42:59;99280.06;;;5.85;100.00
43364;BME280;40636;52.424;-1.948;2023-02-22T05:45:27;99282.09;;;5.90;100.00
43364;BME280;40636;52.424;-1.948;2023-02-22T05:47:54;99272.88;;;5.91;100.00
43364;BME280;40636;52.424;-1.948;2023-02-22T05:50:21;99285.06;;;5.89;100.00
43364;BME280;40636;52.424;-1.948;2023-02-22T05:52:49;99274.28;;;5.82;100.00
43364;BME280;40636;52.424;-1.948;2023-02-22T05:55:18;99275.13;;;5.82;100.00
43364;BME280;40636;52.424;-1.948;2023-02-22T05:57:46;99268.34;;;5.85;100.00
43364;BME280;40636;52.424;-1.948;2023-02-22T06:00:22;99277.97;;;5.88;100.00
43364;BME280;40636;52.424;-1.948;2023-02-22T06:03:03;99276.22;;;5.93;100.00
43364;BME280;40636;52.424;-1.948;2023-02-22T06:05:31;99278.78;;;5.88;100.00
43364;BME280;40636;52.424;-1.948;2023-02-22T06:07:58;99272.88;;;5.91;100.00
43364;BME280;40636;52.424;-1.948;2023-02-22T06:10:26;99264.50;;;5.93;100.00
43364;BME280;40636;52.424;-1.948;2023-02-22T06:12:53;99270.75;;;5.93;100.00
43364;BME280;40636;52.424;-1.948;2023-02-22T06:15:22;99259.88;;;5.93;100.00
43364;BME280;40636;52.424;-1.948;2023-02-22T06:17:49;99259.41;;;5.96;100.00
43364;BME280;40636;52.424;-1.948;2023-02-22T06:20:19;99262.13;;;5.96;100.00
43364;BME280;40636;52.424;-1.948;2023-02-22T06:22:50;99261.06;;;5.97;100.00
43364;BME280;40636;52.424;-1.948;2023-02-22T06:25:20;99257.50;;;5.97;100.00
43364;BME280;40636;52.424;-1.948;2023-02-22T06:27:47;99264.03;;;5.96;100.00
43364;BME280;40636;52.424;-1.948;2023-02-22T06:30:15;99256.19;;;5.99;100.00
43364;BME280;40636;52.424;-1.948;2023-02-22T06:32:42;99256.53;;;6.03;100.00
43364;BME280;40636;52.424;-1.948;2023-02-22T06:35:09;99254.19;;;6.06;100.00
43364;BME280;40636;52.424;-1.948;2023-02-22T06:37:35;99263.19;;;6.07;100.00
43364;BME280;40636;52.424;-1.948;2023-02-22T06:40:04;99249.19;;;6.03;100.00
43364;BME280;40636;52.424;-1.948;2023-02-22T06:42:31;99252.53;;;6.05;100.00
43364;BME280;40636;52.424;-1.948;2023-02-22T06:44:58;99260.69;;;6.05;100.00
43364;BME280;40636;52.424;-1.948;2023-02-22T06:47:25;99255.00;;;6.07;100.00
43364;BME280;40636;52.424;-1.948;2023-02-22T06:49:56;99260.09;;;6.03;100.00
43364;BME280;40636;52.424;-1.948;2023-02-22T06:52:24;99262.94;;;5.97;100.00
43364;BME280;40636;52.424;-1.948;2023-02-22T06:54:51;99270.28;;;5.96;100.00
43364;BME280;40636;52.424;-1.948;2023-02-22T06:57:18;99267.06;;;5.99;100.00
43364;BME280;40636;52.424;-1.948;2023-02-22T06:59:44;99266.50;;;5.97;100.00
43364;BME280;40636;52.424;-1.948;2023-02-22T07:02:12;99261.88;;;5.98;100.00
43364;BME280;40636;52.424;-1.948;2023-02-22T07:04:39;99272.88;;;5.91;100.00
43364;BME280;40636;52.424;-1.948;2023-02-22T07:07:09;99263.66;;;5.92;100.00
43364;BME280;40636;52.424;-1.948;2023-02-22T07:09:35;99259.03;;;5.93;100.00
43364;BME280;40636;52.424;-1.948;2023-02-22T07:12:02;99259.63;;;5.95;100.00
43364;BME280;40636;52.424;-1.948;2023-02-22T07:14:29;99261.53;;;5.94;100.00
43364;BME280;40636;52.424;-1.948;2023-02-22T07:16:56;99269.13;;;5.92;100.00
43364;BME280;40636;52.424;-1.948;2023-02-22T07:19:22;99263.41;;;5.94;100.00
43364;BME280;40636;52.424;-1.948;2023-02-22T07:21:50;99259.63;;;5.95;100.00
43364;BME280;40636;52.424;-1.948;2023-02-22T07:24:22;99273.03;;;5.96;100.00
43364;BME280;40636;52.424;-1.948;2023-02-22T07:26:48;99268.16;;;5.98;100.00
43364;BME280;40636;52.424;-1.948;2023-02-22T07:29:15;99273.72;;;6.03;100.00
43364;BME280;40636;52.424;-1.948;2023-02-22T07:31:42;99277.75;;;6.01;100.00
43364;BME280;40636;52.424;-1.948;2023-02-22T07:34:08;99282.84;;;5.97;100.00
43364;BME280;40636;52.424;-1.948;2023-02-22T07:36:35;99288.03;;;5.99;100.00
43364;BME280;40636;52.424;-1.948;2023-02-22T07:39:02;99286.13;;;5.99;100.00
43364;BME280;40636;52.424;-1.948;2023-02-22T07:41:28;99284.50;;;5.98;100.00
43364;BME280;40636;52.424;-1.948;2023-02-22T07:43:55;99286.38;;;5.98;100.00
43364;BME280;40636;52.424;-1.948;2023-02-22T07:46:22;99289.13;;;5.98;100.00
43364;BME280;40636;52.424;-1.948;2023-02-22T07:48:48;99294.91;;;6.01;100.00
43364;BME280;40636;52.424;-1.948;2023-02-22T07:51:16;99291.72;;;6.04;100.00
43364;BME280;40636;52.424;-1.948;2023-02-22T07:53:43;99295.63;;;6.08;100.00
43364;BME280;40636;52.424;-1.948;2023-02-22T07:56:10;99293.97;;;6.07;100.00
43364;BME280;40636;52.424;-1.948;2023-02-22T07:58:37;99303.94;;;6.14;100.00
43364;BME280;40636;52.424;-1.948;2023-02-22T08:01:03;99295.38;;;6.22;100.00
43364;BME280;40636;52.424;-1.948;2023-02-22T08:03:32;99294.34;;;6.23;100.00
43364;BME280;40636;52.424;-1.948;2023-02-22T08:06:05;99299.28;;;6.26;100.00
43364;BME280;40636;52.424;-1.948;2023-02-22T08:08:32;99299.53;;;6.24;100.00
43364;BME280;40636;52.424;-1.948;2023-02-22T08:10:59;99296.56;;;6.26;100.00
43364;BME280;40636;52.424;-1.948;2023-02-22T08:13:26;99303.69;;;6.27;100.00
43364;BME280;40636;52.424;-1.948;2023-02-22T08:15:54;99311.63;;;6.28;100.00
43364;BME280;40636;52.424;-1.948;2023-02-22T08:18:25;99301.19;;;6.25;100.00
43364;BME280;40636;52.424;-1.948;2023-02-22T08:20:52;99310.53;;;6.29;100.00
43364;BME280;40636;52.424;-1.948;2023-02-22T08:23:29;99318.72;;;6.29;100.00
43364;BME280;40636;52.424;-1.948;2023-02-22T08:26:54;99308.63;;;6.30;100.00
43364;BME280;40636;52.424;-1.948;2023-02-22T08:29:41;99311.47;;;6.35;100.00
43364;BME280;40636;52.424;-1.948;2023-02-22T08:32:07;99311.00;;;6.38;100.00
43364;BME280;40636;52.424;-1.948;2023-02-22T08:34:34;99309.47;;;6.42;100.00
43364;BME280;40636;52.424;-1.948;2023-02-22T08:37:01;99315.03;;;6.47;100.00
43364;BME280;40636;52.424;-1.948;2023-02-22T08:39:28;99317.75;;;6.47;100.00
43364;BME280;40636;52.424;-1.948;2023-02-22T08:41:55;99312.28;;;6.47;100.00
43364;BME280;40636;52.424;-1.948;2023-02-22T08:44:21;99317.84;;;6.52;100.00
43364;BME280;40636;52.424;-1.948;2023-02-22T08:46:49;99320.78;;;6.63;100.00
43364;BME280;40636;52.424;-1.948;2023-02-22T08:49:16;99314.03;;;6.65;100.00
43364;BME280;40636;52.424;-1.948;2023-02-22T08:51:43;99315.47;;;6.68;100.00
43364;BME280;40636;52.424;-1.948;2023-02-22T08:54:10;99319.84;;;6.69;100.00
43364;BME280;40636;52.424;-1.948;2023-02-22T08:56:36;99325.97;;;6.76;100.00
43364;BME280;40636;52.424;-1.948;2023-02-22T08:59:03;99324.22;;;6.81;100.00
43364;BME280;40636;52.424;-1.948;2023-02-22T09:01:30;99322.88;;;6.84;100.00
43364;BME280;40636;52.424;-1.948;2023-02-22T09:03:59;99322.41;;;6.87;100.00
43364;BME280;40636;52.424;-1.948;2023-02-22T09:06:25;99326.53;;;6.90;100.00
43364;BME280;40636;52.424;-1.948;2023-02-22T09:08:52;99326.06;;;6.93;100.00
43364;BME280;40636;52.424;-1.948;2023-02-22T09:11:19;99323.81;;;6.90;100.00
43364;BME280;40636;52.424;-1.948;2023-02-22T09:13:46;99329.03;;;6.91;100.00
43364;BME280;40636;52.424;-1.948;2023-02-22T09:16:12;99328.78;;;6.93;100.00
43364;BME280;40636;52.424;-1.948;2023-02-22T09:18:39;99331.03;;;6.96;100.00
43364;BME280;40636;52.424;-1.948;2023-02-22T09:21:10;99328.53;;;6.94;100.00
43364;BME280;40636;52.424;-1.948;2023-02-22T09:23:37;99334.34;;;6.98;100.00
43364;BME280;40636;52.424;-1.948;2023-02-22T09:26:07;99350.44;;;6.99;100.00
43364;BME280;40636;52.424;-1.948;2023-02-22T09:28:34;99334.09;;;6.99;100.00
43364;BME280;40636;52.424;-1.948;2023-02-22T09:31:00;99352.13;;;7.00;100.00
43364;BME280;40636;52.424;-1.948;2023-02-22T09:33:27;99349.97;;;7.02;100.00
43364;BME280;40636;52.424;-1.948;2023-02-22T09:35:54;99351.72;;;7.08;100.00
43364;BME280;40636;52.424;-1.948;2023-02-22T09:38:22;99355.78;;;7.06;100.00
43364;BME280;40636;52.424;-1.948;2023-02-22T09:41:09;99351.72;;;7.08;100.00
43364;BME280;40636;52.424;-1.948;2023-02-22T09:43:52;99359.50;;;7.00;100.00
43364;BME280;40636;52.424;-1.948;2023-02-22T09:46:34;99355.69;;;7.01;100.00
43364;BME280;40636;52.424;-1.948;2023-02-22T09:51:48;99351.69;;;6.92;100.00
43364;BME280;40636;52.424;-1.948;2023-02-22T09:56:49;99375.88;;;6.88;100.00
43364;BME280;40636;52.424;-1.948;2023-02-22T09:59:24;99375.41;;;6.91;100.00
43364;BME280;40636;52.424;-1.948;2023-02-22T10:01:57;99373.25;;;6.93;100.00
43364;BME280;40636;52.424;-1.948;2023-02-22T10:04:48;99389.88;;;6.80;100.00
43364;BME280;40636;52.424;-1.948;2023-02-22T10:10:03;99390.03;;;6.73;100.00
43364;BME280;40636;52.424;-1.948;2023-02-22T10:15:32;99403.63;;;6.85;100.00
43364;BME280;40636;52.424;-1.948;2023-02-22T10:21:05;99406.13;;;6.86;100.00
43364;BME280;40636;52.424;-1.948;2023-02-22T10:26:29;99410.50;;;6.76;100.00
43364;BME280;40636;52.424;-1.948;2023-02-22T10:31:33;99406.75;;;6.77;100.00
43364;BME280;40636;52.424;-1.948;2023-02-22T10:34:08;99412.19;;;6.77;100.00
43364;BME280;40636;52.424;-1.948;2023-02-22T10:36:38;99416.47;;;6.73;100.00
43364;BME280;40636;52.424;-1.948;2023-02-22T10:39:23;99420.81;;;6.85;100.00
43364;BME280;40636;52.424;-1.948;2023-02-22T10:41:56;99409.19;;;6.90;100.00
43364;BME280;40636;52.424;-1.948;2023-02-22T10:44:24;99422.09;;;7.06;100.00
43364;BME280;40636;52.424;-1.948;2023-02-22T10:46:51;99415.34;;;6.97;100.00
43364;BME280;40636;52.424;-1.948;2023-02-22T10:49:21;99422.81;;;6.90;100.00
43364;BME280;40636;52.424;-1.948;2023-02-22T10:51:59;99423.88;;;7.01;100.00
43364;BME280;40636;52.424;-1.948;2023-02-22T10:54:40;99409.38;;;7.12;100.00
43364;BME280;40636;52.424;-1.948;2023-02-22T10:57:08;99418.53;;;7.18;100.00
43364;BME280;40636;52.424;-1.948;2023-02-22T10:59:39;99423.66;;;7.31;100.00
43364;BME280;40636;52.424;-1.948;2023-02-22T11:02:22;99418.56;;;7.34;100.00
43364;BME280;40636;52.424;-1.948;2023-02-22T11:04:55;99414.63;;;7.42;100.00
43364;BME280;40636;52.424;-1.948;2023-02-22T11:07:32;99423.47;;;7.49;100.00
43364;BME280;40636;52.424;-1.948;2023-02-22T11:10:01;99431.19;;;7.52;100.00
43364;BME280;40636;52.424;-1.948;2023-02-22T11:12:30;99438.81;;;7.50;100.00
43364;BME280;40636;52.424;-1.948;2023-02-22T11:17:50;99435.84;;;7.52;100.00
43364;BME280;40636;52.424;-1.948;2023-02-22T11:20:22;99437.84;;;7.56;100.00
43364;BME280;40636;52.424;-1.948;2023-02-22T11:22:52;99441.84;;;7.66;100.00
43364;BME280;40636;52.424;-1.948;2023-02-22T11:25:24;99448.03;;;7.61;100.00
43364;BME280;40636;52.424;-1.948;2023-02-22T11:27:52;99445.13;;;7.39;100.00
43364;BME280;40636;52.424;-1.948;2023-02-22T11:30:30;99444.28;;;7.50;100.00
43364;BME280;40636;52.424;-1.948;2023-02-22T11:33:02;99442.38;;;7.51;100.00
43364;BME280;40636;52.424;-1.948;2023-02-22T11:35:49;99456.03;;;7.51;100.00
43364;BME280;40636;52.424;-1.948;2023-02-22T11:38:22;99449.97;;;7.49;100.00
43364;BME280;40636;52.424;-1.948;2023-02-22T11:43:34;99452.19;;;7.23;100.00
43364;BME280;40636;52.424;-1.948;2023-02-22T11:46:12;99465.78;;;7.35;100.00
43364;BME280;40636;52.424;-1.948;2023-02-22T11:51:54;99465.66;;;7.42;100.00
43364;BME280;40636;52.424;-1.948;2023-02-22T11:57:18;99477.38;;;7.14;100.00
43364;BME280;40636;52.424;-1.948;2023-02-22T12:00:26;99465.75;;;7.06;100.00
43364;BME280;40636;52.424;-1.948;2023-02-22T12:06:16;99462.38;;;7.28;100.00
43364;BME280;40636;52.424;-1.948;2023-02-22T12:11:57;99459.97;;;7.43;100.00
43364;BME280;40636;52.424;-1.948;2023-02-22T12:14:46;99459.72;;;7.45;100.00
43364;BME280;40636;52.424;-1.948;2023-02-22T12:17:34;99454.97;;;7.40;100.00
43364;BME280;40636;52.424;-1.948;2023-02-22T12:24:09;99457.03;;;7.61;100.00
43364;BME280;40636;52.424;-1.948;2023-02-22T12:26:29;99462.22;;;7.75;100.00
43364;BME280;40636;52.424;-1.948;2023-02-22T12:29:05;99462.31;;;7.51;100.00
43364;BME280;40636;52.424;-1.948;2023-02-22T12:31:35;99462.50;;;7.61;100.00
43364;BME280;40636;52.424;-1.948;2023-02-22T12:34:16;99457.03;;;7.61;100.00
43364;BME280;40636;52.424;-1.948;2023-02-22T12:40:43;99461.69;;;7.61;100.00
43364;BME280;40636;52.424;-1.948;2023-02-22T12:43:17;99461.41;;;7.74;100.00
43364;BME280;40636;52.424;-1.948;2023-02-22T12:45:52;99462.91;;;7.82;100.00
43364;BME280;40636;52.424;-1.948;2023-02-22T12:51:30;99450.00;;;7.94;100.00
43364;BME280;40636;52.424;-1.948;2023-02-22T12:56:53;99453.75;;;8.22;100.00
43364;BME280;40636;52.424;-1.948;2023-02-22T12:59:31;99454.19;;;8.13;100.00
43364;BME280;40636;52.424;-1.948;2023-02-22T13:02:10;99459.97;;;8.17;100.00
43364;BME280;40636;52.424;-1.948;2023-02-22T13:04:40;99468.91;;;8.12;100.00
43364;BME280;40636;52.424;-1.948;2023-02-22T13:07:14;99474.69;;;7.99;100.00
43364;BME280;40636;52.424;-1.948;2023-02-22T13:13:16;99484.63;;;7.48;100.00
43364;BME280;40636;52.424;-1.948;2023-02-22T13:19:10;99474.69;;;7.42;100.00
43364;BME280;40636;52.424;-1.948;2023-02-22T13:22:22;99477.50;;;7.59;100.00
43364;BME280;40636;52.424;-1.948;2023-02-22T13:25:21;99483.88;;;7.65;100.00
43364;BME280;40636;52.424;-1.948;2023-02-22T13:30:49;99476.06;;;8.13;100.00
43364;BME280;40636;52.424;-1.948;2023-02-22T13:33:37;99471.66;;;8.12;100.00
43364;BME280;40636;52.424;-1.948;2023-02-22T13:36:28;99468.47;;;8.04;100.00
43364;BME280;40636;52.424;-1.948;2023-02-22T13:44:11;99479.97;;;7.60;100.00
43364;BME280;40636;52.424;-1.948;2023-02-22T13:50:19;99489.25;;;7.88;100.00
43364;BME280;40636;52.424;-1.948;2023-02-22T13:52:37;99476.53;;;8.10;100.00
43364;BME280;40636;52.424;-1.948;2023-02-22T13:55:09;99475.22;;;8.30;100.00
43364;BME280;40636;52.424;-1.948;2023-02-22T13:57:42;99474.03;;;8.37;100.00
43364;BME280;40636;52.424;-1.948;2023-02-22T14:03:02;99473.16;;;8.20;100.00
43364;BME280;40636;52.424;-1.948;2023-02-22T14:08:51;99480.34;;;8.26;100.00
43364;BME280;40636;52.424;-1.948;2023-02-22T14:10:54;99482.34;;;8.31;100.00
43364;BME280;40636;52.424;-1.948;2023-02-22T14:13:23;99480.78;;;8.35;100.00
43364;BME280;40636;52.424;-1.948;2023-02-22T14:18:43;99476.94;;;8.64;100.00
43364;BME280;40636;52.424;-1.948;2023-02-22T14:21:12;99487.72;;;8.54;100.00
43364;BME280;40636;52.424;-1.948;2023-02-22T14:26:16;99489.16;;;8.28;100.00
43364;BME280;40636;52.424;-1.948;2023-02-22T14:31:14;99494.75;;;8.05;100.00
43364;BME280;40636;52.424;-1.948;2023-02-22T14:34:06;99502.69;;;8.06;100.00
43364;BME280;40636;52.424;-1.948;2023-02-22T14:36:42;99499.97;;;8.06;100.00
43364;BME280;40636;52.424;-1.948;2023-02-22T14:41:37;99498.13;;;7.95;100.00
43364;BME280;40636;52.424;-1.948;2023-02-22T14:44:07;99502.13;;;8.04;100.00
43364;BME280;40636;52.424;-1.948;2023-02-22T14:46:40;99499.06;;;8.01;100.00
43364;BME280;40636;52.424;-1.948;2023-02-22T14:49:10;99502.88;;;8.00;100.00
43364;BME280;40636;52.424;-1.948;2023-02-22T14:51:54;99505.72;;;7.93;100.00
43364;BME280;40636;52.424;-1.948;2023-02-22T14:54:49;99510.75;;;7.84;100.00
43364;BME280;40636;52.424;-1.948;2023-02-22T14:57:21;99508.41;;;7.76;100.00
43364;BME280;40636;52.424;-1.948;2023-02-22T15:00:00;99503.63;;;7.83;100.00
43364;BME280;40636;52.424;-1.948;2023-02-22T15:02:38;99510.28;;;7.47;100.00